Time;durP1;ratioP1;P1;durP2;ratioP2;P2;SDS_P1;SDS_P2;PMS_P1;PMS_P2;Temp;Humidity;BMP_temperature;BMP_pressure;BME280_temperature;BME280_humidity;BME280_pressure;Samples;Min_cycle;Max_cycle;Signal;HPM_P1;HPM_P2
2023/12/14 00:02:19;;;;;;;;;;;;;;;10.38;nan;100723.34;5045432;28;20043;-82
2023/12/14 00:04:45;;;;;;;;;;;;;;;10.36;nan;100717.44;5028927;28;20673;-83
2023/12/14 00:07:14;;;;;;;;;;;;;;;10.35;nan;100721.16;5047631;28;19982;-83
2023/12/14 00:09:39;;;;;;;;;;;;;;;10.36;nan;100722.78;5041532;28;19936;-84
2023/12/14 00:12:05;;;;;;;;;;;;;;;10.37;nan;100724.41;5044831;28;19925;-83
2023/12/14 00:14:30;;;;;;;;;;;;;;;10.36;nan;100721.97;5040457;28;19924;-83
2023/12/14 00:16:58;;;;;;;;;;;;;;;10.37;nan;100729.78;5046527;28;19916;-82
2023/12/14 00:19:24;;;;;;;;;;;;;;;10.35;nan;100737.25;5045340;28;19928;-83
2023/12/14 00:21:49;;;;;;;;;;;;;;;10.37;nan;100737.00;5047769;28;19921;-83
2023/12/14 00:24:14;;;;;;;;;;;;;;;10.37;nan;100745.84;5045760;28;19973;-83
2023/12/14 00:26:40;;;;;;;;;;;;;;;10.35;nan;100745.28;5049292;28;19917;-83
2023/12/14 00:29:05;;;;;;;;;;;;;;;10.37;nan;100750.38;5047931;28;19989;-83
2023/12/14 00:31:30;;;;;;;;;;;;;;;10.36;nan;100754.94;5047951;28;19925;-82
2023/12/14 00:33:56;;;;;;;;;;;;;;;10.36;nan;100760.28;5050909;28;19960;-83
2023/12/14 00:36:21;;;;;;;;;;;;;;;10.33;nan;100760.78;5044936;28;20020;-83
2023/12/14 00:38:46;;;;;;;;;;;;;;;10.34;nan;100766.94;5044688;28;19924;-83
2023/12/14 00:41:12;;;;;;;;;;;;;;;10.33;nan;100763.47;5045698;28;20461;-83
2023/12/14 00:43:38;;;;;;;;;;;;;;;10.32;nan;100769.88;5043639;28;20587;-83
2023/12/14 00:46:03;;;;;;;;;;;;;;;10.29;nan;100767.69;5046170;28;19943;-83
2023/12/14 00:48:28;;;;;;;;;;;;;;;10.29;nan;100771.19;5044649;28;19925;-83
2023/12/14 00:50:54;;;;;;;;;;;;;;;10.31;nan;100772.81;5045769;28;20316;-83
2023/12/14 00:53:19;;;;;;;;;;;;;;;10.34;nan;100766.94;5043824;28;19964;-83
2023/12/14 00:55:45;;;;;;;;;;;;;;;10.35;nan;100769.38;5044232;28;19974;-83
2023/12/14 00:58:12;;;;;;;;;;;;;;;10.33;nan;100768.81;5043576;28;19925;-83
2023/12/14 01:00:38;;;;;;;;;;;;;;;10.31;nan;100778.97;5047910;28;19971;-83
2023/12/14 01:03:03;;;;;;;;;;;;;;;10.33;nan;100779.53;5048347;28;20292;-83
2023/12/14 01:05:28;;;;;;;;;;;;;;;10.32;nan;100780.59;5045766;28;19916;-82
2023/12/14 01:07:54;;;;;;;;;;;;;;;10.32;nan;100793.16;5046339;28;20080;-83
2023/12/14 01:10:19;;;;;;;;;;;;;;;10.31;nan;100794.22;5043030;28;20301;-82
2023/12/14 01:12:44;;;;;;;;;;;;;;;10.31;nan;100789.69;5043422;28;19983;-83
2023/12/14 01:15:12;;;;;;;;;;;;;;;10.29;nan;100797.97;5024817;28;21401;-83
2023/12/14 01:17:37;;;;;;;;;;;;;;;10.32;nan;100806.56;5042570;28;19927;-83
2023/12/14 01:20:04;;;;;;;;;;;;;;;10.30;nan;100809.47;5050400;28;20381;-83
2023/12/14 01:22:29;;;;;;;;;;;;;;;10.29;nan;100806.00;5031893;28;20158;-83
2023/12/14 01:24:55;;;;;;;;;;;;;;;10.30;nan;100814.84;5041592;28;19916;-83
2023/12/14 01:27:20;;;;;;;;;;;;;;;10.27;nan;100805.44;5039826;28;19925;-83
2023/12/14 01:29:45;;;;;;;;;;;;;;;10.29;nan;100818.56;5043834;28;19939;-83
2023/12/14 01:32:11;;;;;;;;;;;;;;;10.29;nan;100819.38;5036033;28;20319;-83
2023/12/14 01:34:36;;;;;;;;;;;;;;;10.31;nan;100824.50;5043196;28;19925;-83
2023/12/14 01:37:01;;;;;;;;;;;;;;;10.32;nan;100831.47;5044234;28;19917;-83
2023/12/14 01:39:27;;;;;;;;;;;;;;;10.33;nan;100829.59;5047360;28;19975;-83
2023/12/14 01:41:52;;;;;;;;;;;;;;;10.29;nan;100827.41;5040004;28;19917;-83
2023/12/14 01:44:17;;;;;;;;;;;;;;;10.28;nan;100839.19;5043605;28;19979;-82
2023/12/14 01:46:42;;;;;;;;;;;;;;;10.28;nan;100841.06;5041337;28;19978;-83
2023/12/14 01:49:08;;;;;;;;;;;;;;;10.27;nan;100840.25;5042033;28;19923;-83
2023/12/14 01:51:34;;;;;;;;;;;;;;;10.28;nan;100847.22;5040909;28;19932;-82
2023/12/14 01:54:00;;;;;;;;;;;;;;;10.29;nan;100842.69;5044912;28;20290;-83
2023/12/14 01:56:25;;;;;;;;;;;;;;;10.28;nan;100851.75;5042328;28;20726;-83
2023/12/14 01:58:50;;;;;;;;;;;;;;;10.25;nan;100857.63;5045111;28;19924;-82
2023/12/14 02:01:20;;;;;;;;;;;;;;;10.26;nan;100852.00;5043337;28;19917;-82
2023/12/14 02:03:47;;;;;;;;;;;;;;;10.26;nan;100856.56;5044085;28;19940;-83
2023/12/14 02:06:12;;;;;;;;;;;;;;;10.25;nan;100860.28;5038242;28;20700;-83
2023/12/14 02:08:37;;;;;;;;;;;;;;;10.26;nan;100862.72;5043322;28;19924;-83
2023/12/14 02:11:03;;;;;;;;;;;;;;;10.26;nan;100869.94;5039827;28;19989;-83
2023/12/14 02:13:28;;;;;;;;;;;;;;;10.27;nan;100874.25;5042272;28;19927;-83
2023/12/14 02:15:53;;;;;;;;;;;;;;;10.26;nan;100880.66;5043375;28;20003;-83
2023/12/14 02:18:19;;;;;;;;;;;;;;;10.26;nan;100880.66;5043655;28;19968;-83
2023/12/14 02:20:44;;;;;;;;;;;;;;;10.26;nan;100877.97;5043566;28;20011;-83
2023/12/14 02:23:09;;;;;;;;;;;;;;;10.25;nan;100881.72;5043783;28;20445;-83
2023/12/14 02:25:35;;;;;;;;;;;;;;;10.26;nan;100883.34;5035413;28;20397;-83
2023/12/14 02:28:00;;;;;;;;;;;;;;;10.27;nan;100882.28;5041344;28;19968;-83
2023/12/14 02:30:25;;;;;;;;;;;;;;;10.26;nan;100877.97;5036738;28;19929;-83
2023/12/14 02:32:51;;;;;;;;;;;;;;;10.25;nan;100874.50;5046523;28;19925;-83
2023/12/14 02:35:18;;;;;;;;;;;;;;;10.24;nan;100875.56;5048704;28;20012;-83
2023/12/14 02:37:43;;;;;;;;;;;;;;;10.23;nan;100876.59;5041004;28;19917;-83
2023/12/14 02:40:09;;;;;;;;;;;;;;;10.22;nan;100884.84;5042847;28;19916;-84
2023/12/14 02:42:34;;;;;;;;;;;;;;;10.19;nan;100879.97;5035678;28;19921;-83
2023/12/14 02:45:01;;;;;;;;;;;;;;;10.19;nan;100878.09;5036396;28;20316;-83
2023/12/14 02:47:27;;;;;;;;;;;;;;;10.18;nan;100884.50;5043062;28;19957;-83
2023/12/14 02:49:52;;;;;;;;;;;;;;;10.19;nan;100875.41;5043080;28;19940;-82
2023/12/14 02:52:18;;;;;;;;;;;;;;;10.21;nan;100876.00;5040676;28;19932;-84
2023/12/14 02:54:43;;;;;;;;;;;;;;;10.23;nan;100879.28;5049837;28;19932;-83
2023/12/14 02:57:08;;;;;;;;;;;;;;;10.23;nan;100881.97;5045522;28;19920;-83
2023/12/14 02:59:34;;;;;;;;;;;;;;;10.24;nan;100888.13;5041734;28;19925;-84
2023/12/14 03:01:59;;;;;;;;;;;;;;;10.22;nan;100892.88;5043951;28;20416;-83
2023/12/14 03:04:25;;;;;;;;;;;;;;;10.22;nan;100900.91;5042605;28;19940;-83
2023/12/14 03:06:50;;;;;;;;;;;;;;;10.25;nan;100897.78;5036887;28;19924;-83
2023/12/14 03:09:16;;;;;;;;;;;;;;;10.26;nan;100905.56;5044298;28;19916;-83
2023/12/14 03:11:41;;;;;;;;;;;;;;;10.28;nan;100898.09;5035393;28;19921;-83
2023/12/14 03:14:06;;;;;;;;;;;;;;;10.30;nan;100900.53;5042833;28;20003;-83
2023/12/14 03:16:32;;;;;;;;;;;;;;;10.32;nan;100897.63;5042038;28;20071;-83
2023/12/14 03:18:57;;;;;;;;;;;;;;;10.31;nan;100899.47;5038973;28;19921;-83
2023/12/14 03:21:23;;;;;;;;;;;;;;;10.29;nan;100905.09;5039163;28;19921;-83
2023/12/14 03:23:49;;;;;;;;;;;;;;;10.32;nan;100905.66;5024920;28;20000;-83
2023/12/14 03:26:14;;;;;;;;;;;;;;;10.31;nan;100912.06;5041431;28;19925;-83
2023/12/14 03:28:39;;;;;;;;;;;;;;;10.28;nan;100916.84;5041384;28;19928;-83
2023/12/14 03:31:05;;;;;;;;;;;;;;;10.27;nan;100925.94;5042392;28;19952;-84
2023/12/14 03:33:30;;;;;;;;;;;;;;;10.25;nan;100922.69;5039111;28;20305;-83
2023/12/14 03:35:55;;;;;;;;;;;;;;;10.26;nan;100928.88;5046203;28;20501;-83
2023/12/14 03:38:21;;;;;;;;;;;;;;;10.24;nan;100939.00;5039615;28;19955;-83
2023/12/14 03:40:46;;;;;;;;;;;;;;;10.20;nan;100932.44;5046438;28;20442;-83
2023/12/14 03:43:11;;;;;;;;;;;;;;;10.18;nan;100946.09;5042597;28;20315;-84
2023/12/14 03:45:36;;;;;;;;;;;;;;;10.18;nan;100945.28;5036278;28;19924;-83
2023/12/14 03:48:02;;;;;;;;;;;;;;;10.19;nan;100952.25;5026531;28;19920;-83
2023/12/14 03:50:28;;;;;;;;;;;;;;;10.21;nan;100955.53;5031976;28;19921;-83
2023/12/14 03:52:54;;;;;;;;;;;;;;;10.21;nan;100964.38;5041072;28;19986;-83
2023/12/14 03:55:19;;;;;;;;;;;;;;;10.22;nan;100957.16;5047292;28;19921;-83
2023/12/14 03:57:45;;;;;;;;;;;;;;;10.22;nan;100965.19;5043287;28;19921;-83
2023/12/14 04:00:11;;;;;;;;;;;;;;;10.20;nan;100970.75;5041485;28;20023;-83
2023/12/14 04:02:36;;;;;;;;;;;;;;;10.21;nan;100972.41;5044251;28;20600;-83
2023/12/14 04:05:01;;;;;;;;;;;;;;;10.23;nan;100972.16;5044295;28;19917;-83
2023/12/14 04:07:27;;;;;;;;;;;;;;;10.23;nan;100974.84;5045731;28;19917;-83
2023/12/14 04:09:52;;;;;;;;;;;;;;;10.23;nan;100981.03;5043316;28;19917;-83
2023/12/14 04:12:17;;;;;;;;;;;;;;;10.24;nan;100984.53;5044764;28;19925;-83
2023/12/14 04:14:44;;;;;;;;;;;;;;;10.23;nan;100991.75;5042905;28;20388;-83
2023/12/14 04:17:09;;;;;;;;;;;;;;;10.22;nan;100997.31;5040063;28;19920;-83
2023/12/14 04:19:35;;;;;;;;;;;;;;;10.22;nan;100997.31;5026911;28;20292;-83
2023/12/14 04:22:00;;;;;;;;;;;;;;;10.23;nan;101004.28;5041332;28;20915;-83
2023/12/14 04:24:25;;;;;;;;;;;;;;;10.24;nan;101000.59;5041134;28;20451;-83
2023/12/14 04:26:51;;;;;;;;;;;;;;;10.25;nan;101005.72;5041185;28;19921;-83
2023/12/14 04:29:16;;;;;;;;;;;;;;;10.25;nan;101000.34;5042219;28;20344;-83
2023/12/14 04:31:41;;;;;;;;;;;;;;;10.25;nan;101004.91;5043734;28;21218;-83
2023/12/14 04:34:11;;;;;;;;;;;;;;;10.26;nan;101009.19;5039744;28;19924;-83
2023/12/14 04:36:37;;;;;;;;;;;;;;;10.25;nan;101020.97;5050244;28;19927;-83
2023/12/14 04:39:02;;;;;;;;;;;;;;;10.22;nan;101018.75;5041791;28;19920;-83
2023/12/14 04:41:27;;;;;;;;;;;;;;;10.23;nan;101031.06;5042246;28;19921;-83
2023/12/14 04:43:53;;;;;;;;;;;;;;;10.23;nan;101025.72;5044708;28;19960;-83
2023/12/14 04:46:18;;;;;;;;;;;;;;;10.23;nan;101034.59;5045649;28;19963;-83
2023/12/14 04:48:43;;;;;;;;;;;;;;;10.23;nan;101042.63;5043306;28;20019;-83
2023/12/14 04:51:11;;;;;;;;;;;;;;;10.23;nan;101053.34;5043761;28;19924;-84
2023/12/14 04:53:36;;;;;;;;;;;;;;;10.23;nan;101052.50;5049656;28;19929;-83
2023/12/14 04:56:01;;;;;;;;;;;;;;;10.19;nan;101044.09;5032599;28;19925;-83
2023/12/14 04:58:27;;;;;;;;;;;;;;;10.17;nan;101059.59;5045801;28;20449;-83
2023/12/14 05:00:53;;;;;;;;;;;;;;;10.18;nan;101055.88;5045506;28;19924;-83
2023/12/14 05:03:18;;;;;;;;;;;;;;;10.18;nan;101060.41;5047931;28;19928;-85
2023/12/14 05:05:43;;;;;;;;;;;;;;;10.19;nan;101062.03;5047991;28;19959;-84
2023/12/14 05:08:09;;;;;;;;;;;;;;;10.16;nan;101066.00;5025651;28;20011;-83
2023/12/14 05:10:34;;;;;;;;;;;;;;;10.15;nan;101061.69;5045764;28;19927;-83
2023/12/14 05:13:00;;;;;;;;;;;;;;;10.17;nan;101061.47;5051509;28;21540;-83
2023/12/14 05:15:25;;;;;;;;;;;;;;;10.19;nan;101070.88;5050449;28;20460;-83
2023/12/14 05:17:50;;;;;;;;;;;;;;;10.18;nan;101068.44;5048669;28;20055;-83
2023/12/14 05:20:16;;;;;;;;;;;;;;;10.18;nan;101074.59;5050849;28;19916;-84
2023/12/14 05:22:41;;;;;;;;;;;;;;;10.18;nan;101084.50;5043901;28;19923;-83
2023/12/14 05:25:06;;;;;;;;;;;;;;;10.16;nan;101071.34;5043982;28;20042;-84
2023/12/14 05:27:32;;;;;;;;;;;;;;;10.14;nan;101081.50;5050209;28;19923;-83
2023/12/14 05:29:57;;;;;;;;;;;;;;;10.14;nan;101080.69;5049973;28;19959;-83
2023/12/14 05:32:22;;;;;;;;;;;;;;;10.13;nan;101092.44;5044300;28;20019;-84
2023/12/14 05:34:48;;;;;;;;;;;;;;;10.13;nan;101097.78;5043649;28;19921;-83
2023/12/14 05:37:13;;;;;;;;;;;;;;;10.13;nan;101103.97;5045092;28;19947;-83
2023/12/14 05:39:41;;;;;;;;;;;;;;;10.13;nan;101100.47;5049043;28;20430;-83
2023/12/14 05:42:06;;;;;;;;;;;;;;;10.15;nan;101106.41;5046442;28;19929;-83
2023/12/14 05:44:31;;;;;;;;;;;;;;;10.13;nan;101112.00;5050744;28;20292;-83
2023/12/14 05:46:57;;;;;;;;;;;;;;;10.13;nan;101117.34;5045368;28;19920;-83
2023/12/14 05:49:22;;;;;;;;;;;;;;;10.15;nan;101114.44;5043471;28;19959;-83
2023/12/14 05:51:47;;;;;;;;;;;;;;;10.16;nan;101118.75;5048220;28;19921;-83
2023/12/14 05:54:13;;;;;;;;;;;;;;;10.17;nan;101120.38;5047421;28;19939;-83
2023/12/14 05:56:38;;;;;;;;;;;;;;;10.16;nan;101129.44;5047741;28;20151;-83
2023/12/14 05:59:03;;;;;;;;;;;;;;;10.16;nan;101124.91;5043254;28;20397;-84
2023/12/14 06:01:28;;;;;;;;;;;;;;;10.14;nan;101131.56;5045729;28;19928;-83
2023/12/14 06:03:54;;;;;;;;;;;;;;;10.15;nan;101130.50;5048712;28;19946;-83
2023/12/14 06:06:19;;;;;;;;;;;;;;;10.14;nan;101136.91;5025791;28;20372;-84
2023/12/14 06:08:45;;;;;;;;;;;;;;;10.14;nan;101142.25;5048036;28;19936;-84
2023/12/14 06:11:10;;;;;;;;;;;;;;;10.14;nan;101143.09;5041899;28;20288;-83
2023/12/14 06:13:35;;;;;;;;;;;;;;;10.14;nan;101144.94;5047582;28;20412;-83
2023/12/14 06:16:01;;;;;;;;;;;;;;;10.13;nan;101152.16;5045218;28;20316;-83
2023/12/14 06:18:26;;;;;;;;;;;;;;;10.13;nan;101157.50;5041743;28;20300;-84
2023/12/14 06:20:52;;;;;;;;;;;;;;;10.14;nan;101158.34;5028829;28;19932;-83
2023/12/14 06:23:18;;;;;;;;;;;;;;;10.15;nan;101162.63;5047329;28;20577;-83
2023/12/14 06:25:43;;;;;;;;;;;;;;;10.15;nan;101162.63;5046934;28;19925;-83
2023/12/14 06:28:08;;;;;;;;;;;;;;;10.15;nan;101166.13;5043410;28;19921;-83
2023/12/14 06:30:34;;;;;;;;;;;;;;;10.14;nan;101167.19;5048245;28;19917;-84
2023/12/14 06:32:59;;;;;;;;;;;;;;;10.16;nan;101174.97;5046623;28;19917;-83
2023/12/14 06:35:24;;;;;;;;;;;;;;;10.16;nan;101180.31;5043008;28;19925;-83
2023/12/14 06:37:49;;;;;;;;;;;;;;;10.17;nan;101179.28;5047771;28;19916;-83
2023/12/14 06:40:15;;;;;;;;;;;;;;;10.16;nan;101183.00;5040303;28;19983;-83
2023/12/14 06:42:42;;;;;;;;;;;;;;;10.17;nan;101203.38;5041751;28;20015;-83
2023/12/14 06:45:08;;;;;;;;;;;;;;;10.16;nan;101202.56;5041088;28;20467;-84
2023/12/14 06:47:33;;;;;;;;;;;;;;;10.16;nan;101204.44;5045505;28;20023;-84
2023/12/14 06:49:58;;;;;;;;;;;;;;;10.15;nan;101211.66;5041421;28;19913;-83
2023/12/14 06:52:24;;;;;;;;;;;;;;;10.15;nan;101211.66;5039407;28;19925;-84
2023/12/14 06:54:49;;;;;;;;;;;;;;;10.13;nan;101218.28;5038359;28;20297;-84
2023/12/14 06:57:14;;;;;;;;;;;;;;;10.12;nan;101225.50;5044432;28;20365;-84
2023/12/14 06:59:39;;;;;;;;;;;;;;;10.13;nan;101235.16;5047817;28;20696;-84
2023/12/14 07:02:05;;;;;;;;;;;;;;;10.14;nan;101242.16;5046061;28;19923;-84
2023/12/14 07:04:31;;;;;;;;;;;;;;;10.15;nan;101259.03;5042199;28;19927;-84
2023/12/14 07:06:56;;;;;;;;;;;;;;;10.15;nan;101251.00;5041922;28;19920;-84
2023/12/14 07:09:21;;;;;;;;;;;;;;;10.15;nan;101262.53;5041046;28;19963;-84
2023/12/14 07:11:47;;;;;;;;;;;;;;;10.14;nan;101268.09;5044110;28;19960;-84
2023/12/14 07:14:13;;;;;;;;;;;;;;;10.14;nan;101274.28;5047085;28;20035;-84
2023/12/14 07:16:38;;;;;;;;;;;;;;;10.14;nan;101276.16;5046233;28;19974;-83
2023/12/14 07:19:03;;;;;;;;;;;;;;;10.14;nan;101266.25;5045120;28;19917;-83
2023/12/14 07:21:29;;;;;;;;;;;;;;;10.15;nan;101280.44;5034682;28;19921;-84
2023/12/14 07:23:54;;;;;;;;;;;;;;;10.15;nan;101280.44;5044321;28;20388;-85
2023/12/14 07:26:19;;;;;;;;;;;;;;;10.15;nan;101280.44;5033108;28;20455;-84
2023/12/14 07:28:45;;;;;;;;;;;;;;;10.14;nan;101285.00;5024573;28;20019;-84
2023/12/14 07:31:10;;;;;;;;;;;;;;;10.14;nan;101285.00;5043327;28;20291;-84
2023/12/14 07:33:35;;;;;;;;;;;;;;;10.15;nan;101283.94;5046549;28;19947;-84
2023/12/14 07:36:01;;;;;;;;;;;;;;;10.15;nan;101286.63;5040986;28;20055;-84
2023/12/14 07:38:26;;;;;;;;;;;;;;;10.18;nan;101290.69;5043633;28;19921;-85
2023/12/14 07:40:52;;;;;;;;;;;;;;;10.19;nan;101295.00;5042894;28;19943;-84
2023/12/14 07:43:18;;;;;;;;;;;;;;;10.22;nan;101302.59;5044319;28;19925;-84
2023/12/14 07:45:43;;;;;;;;;;;;;;;10.21;nan;101292.94;5022313;28;20103;-84
2023/12/14 07:48:09;;;;;;;;;;;;;;;10.21;nan;101300.97;5040633;28;19921;-84
2023/12/14 07:50:34;;;;;;;;;;;;;;;10.20;nan;101301.97;5037624;28;19956;-84
2023/12/14 07:52:59;;;;;;;;;;;;;;;10.20;nan;101310.03;5037796;28;19929;-83
2023/12/14 07:55:25;;;;;;;;;;;;;;;10.20;nan;101312.69;5039775;28;19932;-85
2023/12/14 07:57:50;;;;;;;;;;;;;;;10.22;nan;101321.34;5043043;28;19948;-84
2023/12/14 08:00:16;;;;;;;;;;;;;;;10.23;nan;101328.31;5042693;28;19955;-84
2023/12/14 08:02:41;;;;;;;;;;;;;;;10.22;nan;101334.72;5046925;28;19922;-84
2023/12/14 08:05:07;;;;;;;;;;;;;;;10.20;nan;101342.97;5040993;28;19947;-84
2023/12/14 08:07:32;;;;;;;;;;;;;;;10.19;nan;101344.00;5019380;28;19917;-84
2023/12/14 08:09:58;;;;;;;;;;;;;;;10.19;nan;101344.00;5044869;28;19955;-84
2023/12/14 08:12:24;;;;;;;;;;;;;;;10.20;nan;101344.81;5045044;28;20114;-84
2023/12/14 08:14:50;;;;;;;;;;;;;;;10.20;nan;101344.81;5025287;28;19927;-84
2023/12/14 08:17:15;;;;;;;;;;;;;;;10.20;nan;101350.19;5043945;28;20008;-84
2023/12/14 08:19:40;;;;;;;;;;;;;;;10.20;nan;101360.91;5043112;28;20670;-84
2023/12/14 08:22:07;;;;;;;;;;;;;;;10.20;nan;101369.75;5047393;28;19927;-85
2023/12/14 08:24:32;;;;;;;;;;;;;;;10.21;nan;101378.63;5045526;28;19920;-84
2023/12/14 08:26:58;;;;;;;;;;;;;;;10.21;nan;101382.13;5043807;28;19951;-84
2023/12/14 08:29:23;;;;;;;;;;;;;;;10.21;nan;101384.78;5042981;28;19917;-84
2023/12/14 08:31:48;;;;;;;;;;;;;;;10.22;nan;101390.97;5044123;28;19932;-84
2023/12/14 08:34:14;;;;;;;;;;;;;;;10.21;nan;101395.50;5046246;28;20025;-85
2023/12/14 08:36:39;;;;;;;;;;;;;;;10.20;nan;101391.16;5048924;28;19921;-84
2023/12/14 08:39:05;;;;;;;;;;;;;;;10.20;nan;101393.84;5041376;28;20616;-84
2023/12/14 08:41:30;;;;;;;;;;;;;;;10.22;nan;101402.50;5046666;28;19920;-85
2023/12/14 08:43:55;;;;;;;;;;;;;;;10.23;nan;101403.31;5046768;28;19921;-84
2023/12/14 08:46:21;;;;;;;;;;;;;;;10.24;nan;101404.97;5044015;28;20024;-84
2023/12/14 08:48:47;;;;;;;;;;;;;;;10.27;nan;101416.03;5047897;28;19931;-85
2023/12/14 08:51:13;;;;;;;;;;;;;;;10.26;nan;101421.63;5037133;28;19999;-84
2023/12/14 08:53:38;;;;;;;;;;;;;;;10.27;nan;101426.75;5045053;28;19924;-84
2023/12/14 08:56:03;;;;;;;;;;;;;;;10.28;nan;101427.56;5043248;28;19921;-84
2023/12/14 08:58:29;;;;;;;;;;;;;;;10.28;nan;101427.56;5052428;28;20288;-84
2023/12/14 09:00:54;;;;;;;;;;;;;;;10.27;nan;101426.75;5041074;28;19987;-84
2023/12/14 09:03:20;;;;;;;;;;;;;;;10.28;nan;101432.91;5037858;28;19971;-85
2023/12/14 09:05:46;;;;;;;;;;;;;;;10.31;nan;101435.13;5044040;28;20015;-84
2023/12/14 09:08:11;;;;;;;;;;;;;;;10.32;nan;101450.16;5039524;28;19916;-84
2023/12/14 09:10:37;;;;;;;;;;;;;;;10.33;nan;101449.13;5049746;28;20510;-84
2023/12/14 09:13:04;;;;;;;;;;;;;;;10.35;nan;101459.59;5042104;28;19925;-84
2023/12/14 09:15:30;;;;;;;;;;;;;;;10.36;nan;101467.41;5041615;28;19955;-84
2023/12/14 09:17:56;;;;;;;;;;;;;;;10.37;nan;101458.31;5045645;28;19927;-84
2023/12/14 09:20:21;;;;;;;;;;;;;;;10.40;nan;101463.22;5036911;28;20348;-84
2023/12/14 09:22:46;;;;;;;;;;;;;;;10.40;nan;101465.88;5033886;28;19927;-84
2023/12/14 09:25:12;;;;;;;;;;;;;;;10.42;nan;101471.88;5038655;28;19948;-84
2023/12/14 09:27:37;;;;;;;;;;;;;;;10.42;nan;101477.22;5024684;28;19920;-84
2023/12/14 09:30:03;;;;;;;;;;;;;;;10.43;nan;101467.31;5039173;28;19931;-85
2023/12/14 09:32:28;;;;;;;;;;;;;;;10.43;nan;101473.50;5049579;28;19951;-84
2023/12/14 09:34:56;;;;;;;;;;;;;;;10.44;nan;101469.78;5023122;28;20031;-84
2023/12/14 09:37:22;;;;;;;;;;;;;;;10.44;nan;101475.13;5042803;28;19924;-84
2023/12/14 09:39:47;;;;;;;;;;;;;;;10.43;nan;101476.19;5036857;28;19921;-84
2023/12/14 09:42:16;;;;;;;;;;;;;;;10.42;nan;101479.91;5040711;28;20350;-85
2023/12/14 09:44:43;;;;;;;;;;;;;;;10.43;nan;101483.41;5019801;28;19961;-84
2023/12/14 09:47:08;;;;;;;;;;;;;;;10.45;nan;101492.03;5024790;28;20479;-84
2023/12/14 09:49:35;;;;;;;;;;;;;;;10.45;nan;101492.03;5026561;28;20392;-84
2023/12/14 09:52:00;;;;;;;;;;;;;;;10.45;nan;101490.16;5025928;28;19936;-84
2023/12/14 09:54:26;;;;;;;;;;;;;;;10.43;nan;101491.44;5042262;28;19925;-84
2023/12/14 09:56:52;;;;;;;;;;;;;;;10.42;nan;101490.63;5028154;28;19920;-84
2023/12/14 09:59:18;;;;;;;;;;;;;;;10.43;nan;101504.81;5036813;28;20300;-84
2023/12/14 10:01:43;;;;;;;;;;;;;;;10.44;nan;101509.97;5040988;28;19920;-84
2023/12/14 10:04:11;;;;;;;;;;;;;;;10.45;nan;101506.22;5041127;28;20532;-84
2023/12/14 10:06:36;;;;;;;;;;;;;;;10.45;nan;101505.41;5041816;28;19928;-84
2023/12/14 10:09:03;;;;;;;;;;;;;;;10.45;nan;101506.22;5042509;28;20521;-84
2023/12/14 10:11:28;;;;;;;;;;;;;;;10.46;nan;101509.72;5041496;28;20090;-84
2023/12/14 10:13:53;;;;;;;;;;;;;;;10.46;nan;101505.19;5041041;28;20393;-84
2023/12/14 10:16:32;;;;;;;;;;;;;;;10.47;nan;101514.84;5047781;28;20499;-84
2023/12/14 10:18:58;;;;;;;;;;;;;;;10.49;nan;101512.75;5041401;28;19939;-84
2023/12/14 10:21:24;;;;;;;;;;;;;;;10.51;nan;101518.69;5039520;28;19921;-85
2023/12/14 10:23:49;;;;;;;;;;;;;;;10.56;nan;101520.69;5042282;28;20381;-84
2023/12/14 10:26:15;;;;;;;;;;;;;;;10.58;nan;101518.59;5038890;28;19920;-85
2023/12/14 10:28:40;;;;;;;;;;;;;;;10.61;nan;101526.19;5041685;28;19928;-85
2023/12/14 10:31:06;;;;;;;;;;;;;;;10.64;nan;101532.97;5040674;28;19936;-85
2023/12/14 10:33:32;;;;;;;;;;;;;;;10.65;nan;101527.38;5043041;28;19935;-85
2023/12/14 10:35:57;;;;;;;;;;;;;;;10.67;nan;101527.13;5038107;28;19927;-84
2023/12/14 10:38:24;;;;;;;;;;;;;;;10.68;nan;101526.09;5043209;28;19920;-84
2023/12/14 10:40:50;;;;;;;;;;;;;;;10.68;nan;101537.63;5040366;28;19925;-85
2023/12/14 10:43:16;;;;;;;;;;;;;;;10.67;nan;101544.03;5047868;28;20407;-85
2023/12/14 10:45:43;;;;;;;;;;;;;;;10.68;nan;101559.06;5033933;28;19921;-85
2023/12/14 10:48:09;;;;;;;;;;;;;;;10.70;nan;101559.66;5043923;28;19939;-84
2023/12/14 10:50:36;;;;;;;;;;;;;;;10.73;nan;101553.00;5043691;28;20380;-85
2023/12/14 10:53:03;;;;;;;;;;;;;;;10.76;nan;101552.53;5044554;28;19928;-84
2023/12/14 10:55:30;;;;;;;;;;;;;;;10.78;nan;101548.63;5027186;28;19917;-84
2023/12/14 10:57:56;;;;;;;;;;;;;;;10.80;nan;101537.66;5031257;28;19925;-84
2023/12/14 11:00:22;;;;;;;;;;;;;;;10.81;nan;101539.28;5034267;28;19921;-85
2023/12/14 11:02:47;;;;;;;;;;;;;;;10.78;nan;101537.91;5035526;28;19917;-84
2023/12/14 11:05:15;;;;;;;;;;;;;;;10.80;nan;101545.69;5036033;28;19924;-84
2023/12/14 11:07:48;;;;;;;;;;;;;;;10.80;nan;101556.44;5036094;28;19956;-85
2023/12/14 11:10:15;;;;;;;;;;;;;;;10.81;nan;101558.88;5044321;28;19925;-84
2023/12/14 11:12:59;;;;;;;;;;;;;;;10.84;nan;101566.44;5037823;28;19924;-84
2023/12/14 11:15:25;;;;;;;;;;;;;;;10.86;nan;101558.19;5039111;28;20011;-84
2023/12/14 11:18:12;;;;;;;;;;;;;;;10.87;nan;101568.66;5021356;28;20031;-84
2023/12/14 11:20:47;;;;;;;;;;;;;;;10.89;nan;101565.75;5031363;28;20374;-84
2023/12/14 11:23:13;;;;;;;;;;;;;;;10.91;nan;101574.38;5038369;28;20455;-85
2023/12/14 11:25:39;;;;;;;;;;;;;;;10.95;nan;101574.72;5020955;28;19927;-84
2023/12/14 11:28:06;;;;;;;;;;;;;;;10.96;nan;101585.25;5040977;28;19943;-84
2023/12/14 11:30:31;;;;;;;;;;;;;;;10.98;nan;101582.34;5031426;28;19916;-84
2023/12/14 11:32:57;;;;;;;;;;;;;;;11.02;nan;101583.50;5038881;28;19925;-84
2023/12/14 11:35:22;;;;;;;;;;;;;;;11.02;nan;101586.19;5042221;28;19928;-85
2023/12/14 11:37:47;;;;;;;;;;;;;;;11.05;nan;101596.44;5038778;28;20639;-84
2023/12/14 11:40:16;;;;;;;;;;;;;;;11.06;nan;101600.75;5042033;28;20370;-84
2023/12/14 11:42:41;;;;;;;;;;;;;;;11.06;nan;101609.63;5038887;28;20439;-84
2023/12/14 11:45:06;;;;;;;;;;;;;;;11.07;nan;101608.56;5039895;28;19921;-84
2023/12/14 11:47:32;;;;;;;;;;;;;;;11.07;nan;101608.56;5039929;28;20504;-84
2023/12/14 11:49:57;;;;;;;;;;;;;;;11.09;nan;101603.81;5043767;28;19920;-84
2023/12/14 11:52:22;;;;;;;;;;;;;;;11.10;nan;101599.25;5048958;28;19921;-85
2023/12/14 11:54:48;;;;;;;;;;;;;;;11.11;nan;101604.38;5042652;28;19963;-84
2023/12/14 11:57:13;;;;;;;;;;;;;;;11.12;nan;101603.34;5046302;28;19917;-85
2023/12/14 11:59:38;;;;;;;;;;;;;;;11.14;nan;101608.50;5026170;28;19971;-85
2023/12/14 12:02:04;;;;;;;;;;;;;;;11.14;nan;101606.63;5043960;28;21460;-84
2023/12/14 12:04:30;;;;;;;;;;;;;;;11.15;nan;101615.50;5030785;28;20395;-85
2023/12/14 12:07:02;;;;;;;;;;;;;;;11.13;nan;101618.41;5044557;28;19927;-85
2023/12/14 12:09:34;;;;;;;;;;;;;;;11.12;nan;101614.06;5026843;28;20364;-84
2023/12/14 12:11:59;;;;;;;;;;;;;;;11.13;nan;101615.72;5042657;28;20512;-85
2023/12/14 12:14:25;;;;;;;;;;;;;;;11.14;nan;101620.03;5045910;28;19964;-85
2023/12/14 12:16:52;;;;;;;;;;;;;;;11.16;nan;101628.66;5039854;28;20471;-85
2023/12/14 12:19:18;;;;;;;;;;;;;;;11.16;nan;101625.16;5052114;28;19970;-85
2023/12/14 12:21:43;;;;;;;;;;;;;;;11.19;nan;101630.06;5042450;28;19916;-84
2023/12/14 12:24:08;;;;;;;;;;;;;;;11.20;nan;101629.84;5043085;28;19982;-84
2023/12/14 12:26:34;;;;;;;;;;;;;;;11.19;nan;101628.19;5039581;28;20056;-84
2023/12/14 12:28:59;;;;;;;;;;;;;;;11.23;nan;101633.09;5040407;28;20341;-84
2023/12/14 12:31:24;;;;;;;;;;;;;;;11.24;nan;101632.88;5025496;28;19925;-85
2023/12/14 12:33:50;;;;;;;;;;;;;;;11.23;nan;101641.97;5026685;28;19924;-85
2023/12/14 12:36:15;;;;;;;;;;;;;;;11.24;nan;101634.72;5040421;28;20474;-85
2023/12/14 12:38:40;;;;;;;;;;;;;;;11.24;nan;101645.47;5037557;28;19924;-84
2023/12/14 12:41:06;;;;;;;;;;;;;;;11.25;nan;101641.72;5040629;28;20408;-85
2023/12/14 12:43:31;;;;;;;;;;;;;;;11.25;nan;101647.09;5040420;28;19920;-84
2023/12/14 12:45:58;;;;;;;;;;;;;;;11.25;nan;101647.91;5040295;28;20364;-84
2023/12/14 12:48:23;;;;;;;;;;;;;;;11.25;nan;101660.50;5040808;28;19924;-84
2023/12/14 12:50:49;;;;;;;;;;;;;;;11.25;nan;101666.69;5015484;28;19921;-84